Time;durP1;ratioP1;P1;durP2;ratioP2;P2;SDS_P1;SDS_P2;PMS_P1;PMS_P2;Temp;Humidity;BMP_temperature;BMP_pressure;BME280_temperature;BME280_humidity;BME280_pressure;Samples;Min_cycle;Max_cycle;Signal;HPM_P1;HPM_P2
2022/06/07 00:00:26;;;;;;;5.05;4.35;;;;;;;;;;5014105;28;20060;-85
2022/06/07 00:02:54;;;;;;;5.68;5.18;;;;;;;;;;5014733;28;20092;-85
2022/06/07 00:05:21;;;;;;;5.03;4.63;;;;;;;;;;5013995;28;20046;-85
2022/06/07 00:07:49;;;;;;;5.90;5.32;;;;;;;;;;5014259;28;20049;-86
2022/06/07 00:10:16;;;;;;;5.43;4.93;;;;;;;;;;5015310;28;20058;-85
2022/06/07 00:12:43;;;;;;;5.10;4.60;;;;;;;;;;5014839;28;20080;-85
2022/06/07 00:15:11;;;;;;;6.55;4.90;;;;;;;;;;5023832;28;20117;-85
2022/06/07 00:17:38;;;;;;;4.57;4.13;;;;;;;;;;5020386;28;20133;-86
2022/06/07 00:20:06;;;;;;;5.88;4.78;;;;;;;;;;5014235;28;20524;-85
2022/06/07 00:22:33;;;;;;;4.68;4.38;;;;;;;;;;5014024;28;20128;-85
2022/06/07 00:25:00;;;;;;;5.10;4.70;;;;;;;;;;5014350;28;20050;-85
2022/06/07 00:27:27;;;;;;;4.95;4.65;;;;;;;;;;5015257;28;20084;-85
2022/06/07 00:29:55;;;;;;;4.35;3.95;;;;;;;;;;5014897;28;20049;-85
2022/06/07 00:32:22;;;;;;;5.60;4.40;;;;;;;;;;5014071;28;20052;-85
2022/06/07 00:34:50;;;;;;;4.57;4.18;;;;;;;;;;5013827;28;20410;-85
2022/06/07 00:37:17;;;;;;;4.40;4.10;;;;;;;;;;5013965;28;20053;-85
2022/06/07 00:39:44;;;;;;;4.03;3.72;;;;;;;;;;5013671;28;20060;-85
2022/06/07 00:42:12;;;;;;;3.47;3.28;;;;;;;;;;5014496;28;20052;-85
2022/06/07 00:44:44;;;;;;;4.30;3.90;;;;;;;;;;5013555;28;20140;-85
2022/06/07 00:47:19;;;;;;;3.60;3.40;;;;;;;;;;5013625;28;20123;-85
2022/06/07 00:49:46;;;;;;;5.65;4.25;;;;;;;;;;5014857;28;20058;-85
2022/06/07 00:52:13;;;;;;;5.18;4.07;;;;;;;;;;5014631;28;20417;-85
2022/06/07 00:54:41;;;;;;;4.03;3.72;;;;;;;;;;5013547;28;20045;-85
2022/06/07 00:57:08;;;;;;;4.25;3.95;;;;;;;;;;5014379;28;20571;-85
2022/06/07 00:59:36;;;;;;;3.83;3.60;;;;;;;;;;5036315;28;20088;-85
2022/06/07 01:02:03;;;;;;;6.72;4.00;;;;;;;;;;5036745;28;20053;-86
2022/06/07 01:04:30;;;;;;;4.35;3.95;;;;;;;;;;5036439;28;20076;-86
2022/06/07 01:12:32;;;;;;;5.03;4.03;;;;;;;;;;5053852;28;20468;-85
2022/06/07 01:14:59;;;;;;;4.43;4.07;;;;;;;;;;5036305;28;20049;-85
2022/06/07 01:17:27;;;;;;;4.35;4.05;;;;;;;;;;5036276;28;20147;-86
2022/06/07 01:19:54;;;;;;;4.45;4.25;;;;;;;;;;5036284;28;20131;-85
2022/06/07 01:22:21;;;;;;;4.32;4.10;;;;;;;;;;5036145;28;20132;-85
2022/06/07 01:24:48;;;;;;;4.18;3.83;;;;;;;;;;5053684;28;20055;-85
2022/06/07 01:27:16;;;;;;;4.22;3.90;;;;;;;;;;5053695;28;20165;-85
2022/06/07 01:29:43;;;;;;;5.45;4.43;;;;;;;;;;5036224;28;20053;-85
2022/06/07 01:32:10;;;;;;;4.78;4.35;;;;;;;;;;5044114;28;20124;-86
2022/06/07 01:34:39;;;;;;;4.35;4.05;;;;;;;;;;5061288;28;20469;-86
2022/06/07 01:37:06;;;;;;;4.00;3.80;;;;;;;;;;5035774;28;20480;-85
2022/06/07 01:42:21;;;;;;;4.43;4.13;;;;;;;;;;5053477;28;20052;-86
2022/06/07 01:44:49;;;;;;;4.25;3.95;;;;;;;;;;5053005;28;20047;-85
2022/06/07 01:47:21;;;;;;;4.20;3.90;;;;;;;;;;5053124;28;20141;-86
2022/06/07 01:49:48;;;;;;;4.47;4.13;;;;;;;;;;5035703;28;20500;-86
2022/06/07 01:52:16;;;;;;;4.30;4.00;;;;;;;;;;5035575;28;20127;-85
2022/06/07 01:54:43;;;;;;;4.63;4.30;;;;;;;;;;5035657;28;20131;-86
2022/06/07 01:57:11;;;;;;;4.88;4.53;;;;;;;;;;5035534;28;20051;-85
2022/06/07 01:59:38;;;;;;;4.38;4.00;;;;;;;;;;5035493;28;20456;-86
2022/06/07 02:02:06;;;;;;;4.53;4.22;;;;;;;;;;5035284;28;20110;-86
2022/06/07 02:04:37;;;;;;;5.93;4.60;;;;;;;;;;5052968;28;20400;-85
2022/06/07 02:07:05;;;;;;;4.28;3.90;;;;;;;;;;5052942;28;20136;-85
2022/06/07 02:09:40;;;;;;;6.10;4.25;;;;;;;;;;5036367;28;20512;-86
2022/06/07 02:12:08;;;;;;;4.43;4.18;;;;;;;;;;5052626;28;20053;-86
2022/06/07 02:14:35;;;;;;;4.72;4.28;;;;;;;;;;5034972;28;20092;-85
2022/06/07 02:17:02;;;;;;;4.30;4.10;;;;;;;;;;5035323;28;20125;-85
2022/06/07 02:19:29;;;;;;;7.00;4.20;;;;;;;;;;5035000;28;20046;-85
2022/06/07 02:21:56;;;;;;;4.28;3.88;;;;;;;;;;5035362;28;20081;-85
2022/06/07 02:24:24;;;;;;;4.50;4.13;;;;;;;;;;5034936;28;20049;-85
2022/06/07 02:26:53;;;;;;;4.85;4.40;;;;;;;;;;5052547;28;20485;-86
2022/06/07 02:29:21;;;;;;;4.45;4.15;;;;;;;;;;5035146;28;20056;-85
2022/06/07 02:31:50;;;;;;;4.13;3.78;;;;;;;;;;5035015;28;20132;-85
2022/06/07 02:34:18;;;;;;;4.70;4.40;;;;;;;;;;5052463;28;20049;-85
2022/06/07 02:36:47;;;;;;;4.60;4.30;;;;;;;;;;5035006;28;20136;-86
2022/06/07 02:39:14;;;;;;;4.30;3.90;;;;;;;;;;5034406;28;20131;-85
2022/06/07 02:41:42;;;;;;;4.65;4.35;;;;;;;;;;5052558;28;20527;-85
2022/06/07 02:44:09;;;;;;;6.82;4.82;;;;;;;;;;5036655;28;20148;-85
2022/06/07 02:46:37;;;;;;;4.90;4.50;;;;;;;;;;5039163;28;20053;-85
2022/06/07 02:49:04;;;;;;;4.82;4.53;;;;;;;;;;5061143;28;20071;-85
2022/06/07 02:51:31;;;;;;;4.50;4.13;;;;;;;;;;5068061;28;20091;-86
2022/06/07 02:54:03;;;;;;;4.80;4.50;;;;;;;;;;5039407;28;20056;-85
2022/06/07 02:56:31;;;;;;;5.18;4.78;;;;;;;;;;5038405;28;20497;-86
2022/06/07 02:58:58;;;;;;;5.03;4.57;;;;;;;;;;5056151;28;20049;-85
2022/06/07 03:01:26;;;;;;;5.38;4.78;;;;;;;;;;5038506;28;20135;-85
2022/06/07 03:03:53;;;;;;;5.18;4.78;;;;;;;;;;5056100;28;20056;-85
2022/06/07 03:06:20;;;;;;;4.93;4.57;;;;;;;;;;5055820;28;20472;-85
2022/06/07 03:08:47;;;;;;;6.53;5.30;;;;;;;;;;5055602;28;20051;-85
2022/06/07 03:11:15;;;;;;;6.93;5.05;;;;;;;;;;5038224;28;20136;-86
2022/06/07 03:13:42;;;;;;;5.55;5.07;;;;;;;;;;5038652;28;20049;-85
2022/06/07 03:16:10;;;;;;;5.80;5.13;;;;;;;;;;5038327;28;20087;-85
2022/06/07 03:18:37;;;;;;;7.30;5.50;;;;;;;;;;5055694;28;20060;-85
2022/06/07 03:21:04;;;;;;;7.80;5.57;;;;;;;;;;5055641;28;20135;-86
2022/06/07 03:23:31;;;;;;;7.03;4.97;;;;;;;;;;5038064;28;20092;-85
2022/06/07 03:26:10;;;;;;;5.57;5.18;;;;;;;;;;5038016;28;20045;-85
2022/06/07 03:28:37;;;;;;;5.30;4.90;;;;;;;;;;5055865;28;20057;-86
2022/06/07 03:31:05;;;;;;;5.78;5.22;;;;;;;;;;5055525;28;20501;-86
2022/06/07 03:33:34;;;;;;;5.57;5.22;;;;;;;;;;5038056;28;20077;-85
2022/06/07 03:36:12;;;;;;;5.20;4.90;;;;;;;;;;5038210;28;20075;-85
2022/06/07 03:38:41;;;;;;;5.60;5.10;;;;;;;;;;5055720;28;20045;-86
2022/06/07 03:41:09;;;;;;;5.35;4.95;;;;;;;;;;5037809;28;20049;-85
2022/06/07 03:43:37;;;;;;;6.72;5.50;;;;;;;;;;5037939;28;20115;-85
2022/06/07 03:46:12;;;;;;;5.53;5.03;;;;;;;;;;5037434;28;20045;-85
2022/06/07 03:48:41;;;;;;;5.43;4.93;;;;;;;;;;5037638;28;20049;-85
2022/06/07 03:51:08;;;;;;;6.18;5.68;;;;;;;;;;5055347;28;20404;-85
2022/06/07 03:53:36;;;;;;;7.72;5.70;;;;;;;;;;5055547;28;20045;-85
2022/06/07 03:56:08;;;;;;;5.93;5.45;;;;;;;;;;5053729;28;20099;-86
2022/06/07 03:58:38;;;;;;;5.68;5.18;;;;;;;;;;5054931;28;20071;-85
2022/06/07 04:01:07;;;;;;;5.63;5.13;;;;;;;;;;5054923;28;20053;-86
2022/06/07 04:03:42;;;;;;;10.88;5.25;;;;;;;;;;5039185;28;20044;-86
2022/06/07 04:06:25;;;;;;;12.80;5.63;;;;;;;;;;5040207;28;20048;-86
2022/06/07 04:08:53;;;;;;;13.85;5.82;;;;;;;;;;5047300;28;20125;-85
2022/06/07 04:11:21;;;;;;;5.60;5.13;;;;;;;;;;5037250;28;20060;-85
2022/06/07 04:13:49;;;;;;;5.63;5.22;;;;;;;;;;5037203;28;20128;-86
2022/06/07 04:16:17;;;;;;;9.40;5.50;;;;;;;;;;5054723;28;20059;-85
2022/06/07 04:18:45;;;;;;;5.28;4.78;;;;;;;;;;5037178;28;20044;-85
2022/06/07 04:21:13;;;;;;;4.43;4.13;;;;;;;;;;5037033;28;20408;-85
2022/06/07 04:23:40;;;;;;;7.32;4.75;;;;;;;;;;5037491;28;20053;-85
2022/06/07 04:26:18;;;;;;;14.23;5.95;;;;;;;;;;5038257;28;20045;-86
2022/06/07 04:28:46;;;;;;;29.80;6.78;;;;;;;;;;5054868;28;20051;-85
2022/06/07 04:31:14;;;;;;;22.30;7.13;;;;;;;;;;5036874;28;20416;-86
2022/06/07 04:33:42;;;;;;;15.98;5.45;;;;;;;;;;5037158;28;20044;-86
2022/06/07 04:36:11;;;;;;;5.38;4.15;;;;;;;;;;5036542;28;20056;-85
2022/06/07 04:38:38;;;;;;;6.90;4.10;;;;;;;;;;5036936;28;20049;-85
2022/06/07 04:41:09;;;;;;;4.07;3.83;;;;;;;;;;5036768;28;20135;-85
2022/06/07 04:43:37;;;;;;;5.20;3.80;;;;;;;;;;5037020;28;20465;-86
2022/06/07 04:46:08;;;;;;;7.88;3.97;;;;;;;;;;5036630;28;20053;-85
2022/06/07 04:48:35;;;;;;;5.60;3.72;;;;;;;;;;5036651;28;20053;-85
2022/06/07 04:51:07;;;;;;;7.53;4.22;;;;;;;;;;5054381;28;20067;-85
2022/06/07 04:53:34;;;;;;;11.02;4.03;;;;;;;;;;5036737;28;20049;-85
2022/06/07 04:56:07;;;;;;;6.82;4.18;;;;;;;;;;5036509;28;20049;-85
2022/06/07 04:58:34;;;;;;;8.80;3.63;;;;;;;;;;5036056;28;20051;-85
2022/06/07 05:01:01;;;;;;;10.52;3.78;;;;;;;;;;5036276;28;20045;-85
2022/06/07 05:03:28;;;;;;;5.70;3.85;;;;;;;;;;5036446;28;20052;-85
2022/06/07 05:05:56;;;;;;;7.70;4.18;;;;;;;;;;5036232;28;20497;-86
2022/06/07 05:08:23;;;;;;;13.50;4.75;;;;;;;;;;5035718;28;20132;-86
2022/06/07 05:10:51;;;;;;;10.90;4.75;;;;;;;;;;5053502;28;20057;-85
2022/06/07 05:13:18;;;;;;;6.03;3.88;;;;;;;;;;5035933;28;20152;-85
2022/06/07 05:15:53;;;;;;;3.97;3.25;;;;;;;;;;5053975;28;20080;-85
2022/06/07 05:18:20;;;;;;;3.80;3.53;;;;;;;;;;5053718;28;20088;-85
2022/06/07 05:20:47;;;;;;;9.32;3.83;;;;;;;;;;5053785;28;20088;-85
2022/06/07 05:23:14;;;;;;;4.35;3.20;;;;;;;;;;5036150;28;20052;-86
2022/06/07 05:25:51;;;;;;;6.10;3.30;;;;;;;;;;5067617;28;20136;-85
2022/06/07 05:28:19;;;;;;;9.55;3.50;;;;;;;;;;5053368;28;20136;-85
2022/06/07 05:30:46;;;;;;;11.70;4.07;;;;;;;;;;5035958;28;20049;-85
2022/06/07 05:33:13;;;;;;;8.75;3.63;;;;;;;;;;5053357;28;20045;-85
2022/06/07 05:35:41;;;;;;;4.95;3.22;;;;;;;;;;5035878;28;20049;-85
2022/06/07 05:38:09;;;;;;;3.65;2.67;;;;;;;;;;5036188;28;20055;-85
2022/06/07 05:40:36;;;;;;;7.85;3.15;;;;;;;;;;5035556;28;20055;-85
2022/06/07 05:43:03;;;;;;;6.18;2.80;;;;;;;;;;5053159;28;20044;-85
2022/06/07 05:45:31;;;;;;;3.15;2.70;;;;;;;;;;5035137;28;20128;-85
2022/06/07 05:47:58;;;;;;;2.95;2.50;;;;;;;;;;5053510;28;20045;-85
2022/06/07 05:50:25;;;;;;;2.63;2.50;;;;;;;;;;5035587;28;20409;-85
2022/06/07 05:52:53;;;;;;;5.47;2.38;;;;;;;;;;5035539;28;20051;-86
2022/06/07 05:55:20;;;;;;;4.90;2.50;;;;;;;;;;5052903;28;20071;-85
2022/06/07 05:57:51;;;;;;;4.57;2.40;;;;;;;;;;5035427;28;20544;-85
2022/06/07 06:00:18;;;;;;;2.97;2.67;;;;;;;;;;5035286;28;20489;-85
2022/06/07 06:02:45;;;;;;;3.10;2.15;;;;;;;;;;5035353;28;20087;-85
2022/06/07 06:05:12;;;;;;;7.03;2.85;;;;;;;;;;5052862;28;20091;-86
2022/06/07 06:10:19;;;;;;;4.55;2.35;;;;;;;;;;5035593;28;20072;-86
2022/06/07 06:10:27;;;;;;;7.18;2.75;;;;;;;;;;5052996;28;20493;-86
2022/06/07 06:12:54;;;;;;;8.20;2.42;;;;;;;;;;5035422;28;20504;-86
2022/06/07 06:15:22;;;;;;;4.85;2.22;;;;;;;;;;5034806;28;20575;-86
2022/06/07 06:17:49;;;;;;;4.85;2.53;;;;;;;;;;5035009;28;20111;-86
2022/06/07 06:20:16;;;;;;;11.23;3.08;;;;;;;;;;5034895;28;20136;-86
2022/06/07 06:22:43;;;;;;;9.63;2.33;;;;;;;;;;5035296;28;20049;-86
2022/06/07 06:25:10;;;;;;;7.53;2.60;;;;;;;;;;5052709;28;20083;-86
2022/06/07 06:27:38;;;;;;;4.13;2.72;;;;;;;;;;5035314;28;20143;-86
2022/06/07 06:30:10;;;;;;;12.30;2.50;;;;;;;;;;5035267;28;20166;-86
2022/06/07 06:32:37;;;;;;;11.55;2.78;;;;;;;;;;5052915;28;20053;-84
2022/06/07 06:35:05;;;;;;;2.60;2.00;;;;;;;;;;5035079;28;20049;-87
2022/06/07 06:37:32;;;;;;;8.00;2.33;;;;;;;;;;5035289;28;20076;-86
2022/06/07 06:39:59;;;;;;;9.40;2.13;;;;;;;;;;5035163;28;20635;-87
2022/06/07 06:42:27;;;;;;;7.25;2.13;;;;;;;;;;5047698;28;20049;-86
2022/06/07 06:44:55;;;;;;;4.93;1.90;;;;;;;;;;5052503;28;20079;-86
2022/06/07 06:47:22;;;;;;;4.60;2.55;;;;;;;;;;5035051;28;20044;-85
2022/06/07 06:49:50;;;;;;;5.13;2.03;;;;;;;;;;5034933;28;20132;-86
2022/06/07 06:52:17;;;;;;;6.57;2.63;;;;;;;;;;5052618;28;20053;-86
2022/06/07 06:54:44;;;;;;;6.55;2.00;;;;;;;;;;5034934;28;20053;-86
2022/06/07 06:57:12;;;;;;;4.85;1.35;;;;;;;;;;5034784;28;20140;-85
2022/06/07 06:59:39;;;;;;;2.17;1.20;;;;;;;;;;5052121;28;20052;-86
2022/06/07 07:02:06;;;;;;;4.75;2.03;;;;;;;;;;5034785;28;20476;-86
2022/06/07 07:04:33;;;;;;;8.02;1.70;;;;;;;;;;5035016;28;20478;-86
2022/06/07 07:07:01;;;;;;;6.40;1.40;;;;;;;;;;5052460;28;20139;-86
2022/06/07 07:09:28;;;;;;;4.53;1.33;;;;;;;;;;5034595;28;20045;-86
2022/06/07 07:11:58;;;;;;;5.45;1.58;;;;;;;;;;5052476;28;20076;-86
2022/06/07 07:14:25;;;;;;;4.30;1.40;;;;;;;;;;5034520;28;20136;-86
2022/06/07 07:16:52;;;;;;;1.60;0.88;;;;;;;;;;5052256;28;20128;-85
2022/06/07 07:19:20;;;;;;;2.72;1.00;;;;;;;;;;5035049;28;20122;-84
2022/06/07 07:21:49;;;;;;;2.53;1.38;;;;;;;;;;5034967;28;20053;-83
2022/06/07 07:24:18;;;;;;;1.23;0.73;;;;;;;;;;5052114;28;20417;-83
2022/06/07 07:26:46;;;;;;;3.85;1.08;;;;;;;;;;5052125;28;20088;-86
2022/06/07 07:29:14;;;;;;;3.10;0.82;;;;;;;;;;5034980;28;20136;-85
2022/06/07 07:31:42;;;;;;;3.47;0.70;;;;;;;;;;5038020;28;20584;-85
2022/06/07 07:34:11;;;;;;;0.57;0.50;;;;;;;;;;5037826;28;20045;-85
2022/06/07 07:36:44;;;;;;;0.50;0.40;;;;;;;;;;5038074;28;20454;-86
2022/06/07 07:39:18;;;;;;;1.95;0.50;;;;;;;;;;5038866;28;20045;-86
2022/06/07 07:41:48;;;;;;;0.60;0.55;;;;;;;;;;5037800;28;20597;-85
2022/06/07 07:44:17;;;;;;;4.90;0.63;;;;;;;;;;5055219;28;20139;-86
2022/06/07 07:46:45;;;;;;;6.43;1.10;;;;;;;;;;5037933;28;20092;-85
2022/06/07 07:49:13;;;;;;;14.27;1.75;;;;;;;;;;5055294;28;20045;-85
2022/06/07 07:51:41;;;;;;;3.30;0.73;;;;;;;;;;5037620;28;20055;-85
2022/06/07 07:54:10;;;;;;;1.98;0.50;;;;;;;;;;5037398;28;20267;-85
2022/06/07 07:56:38;;;;;;;1.65;0.40;;;;;;;;;;5037870;28;20128;-85
2022/06/07 07:59:06;;;;;;;4.22;0.60;;;;;;;;;;5061066;28;20084;-85
2022/06/07 08:01:33;;;;;;;0.68;0.50;;;;;;;;;;5061553;28;20075;-85
2022/06/07 08:04:01;;;;;;;0.52;0.40;;;;;;;;;;5055001;28;20077;-84
2022/06/07 08:06:29;;;;;;;1.52;0.50;;;;;;;;;;5037358;28;20051;-84
2022/06/07 08:08:57;;;;;;;1.27;0.60;;;;;;;;;;5054259;28;20563;-83
2022/06/07 08:11:26;;;;;;;4.93;0.50;;;;;;;;;;5037454;28;20137;-87
2022/06/07 08:13:54;;;;;;;0.85;0.43;;;;;;;;;;5037314;28;20064;-85
2022/06/07 08:16:21;;;;;;;0.80;0.40;;;;;;;;;;5037289;28;20051;-84
2022/06/07 08:18:48;;;;;;;1.67;0.50;;;;;;;;;;5037128;28;20537;-84
2022/06/07 08:21:20;;;;;;;1.70;0.40;;;;;;;;;;5036919;28;20087;-84
2022/06/07 08:23:48;;;;;;;2.92;0.60;;;;;;;;;;5037133;28;20045;-85
2022/06/07 08:26:16;;;;;;;1.77;0.60;;;;;;;;;;5054577;28;20048;-85
2022/06/07 08:28:44;;;;;;;0.35;0.30;;;;;;;;;;5036868;28;20566;-86
2022/06/07 08:31:16;;;;;;;5.25;0.50;;;;;;;;;;5037048;28;20137;-85
2022/06/07 08:39:16;;;;;;;0.28;0.20;;;;;;;;;;5053675;28;20099;-85
2022/06/07 08:41:53;;;;;;;5.80;0.45;;;;;;;;;;5036203;28;20049;-87
2022/06/07 08:44:24;;;;;;;6.10;0.60;;;;;;;;;;5053183;28;20067;-84
2022/06/07 08:46:52;;;;;;;2.50;0.30;;;;;;;;;;5035649;28;20084;-84
2022/06/07 08:49:20;;;;;;;0.60;0.40;;;;;;;;;;5035581;28;20132;-85
2022/06/07 08:52:06;;;;;;;3.22;0.50;;;;;;;;;;5053242;28;20088;-86
2022/06/07 08:54:35;;;;;;;14.35;1.50;;;;;;;;;;5052935;28;20489;-84
2022/06/07 08:57:10;;;;;;;4.53;0.63;;;;;;;;;;5052973;28;20513;-85
2022/06/07 08:59:38;;;;;;;0.55;0.40;;;;;;;;;;5053115;28;20087;-85
2022/06/07 09:02:25;;;;;;;0.90;0.40;;;;;;;;;;5035298;28;20128;-85
2022/06/07 09:04:52;;;;;;;2.42;1.00;;;;;;;;;;5035140;28;20471;-85
2022/06/07 09:07:20;;;;;;;2.33;0.45;;;;;;;;;;5035144;28;20045;-85
2022/06/07 09:12:37;;;;;;;1.92;0.40;;;;;;;;;;5053089;28;20124;-86
2022/06/07 09:15:19;;;;;;;1.52;0.47;;;;;;;;;;5035549;28;20092;-83
2022/06/07 09:17:53;;;;;;;1.90;0.38;;;;;;;;;;5043026;28;20064;-82
2022/06/07 09:20:23;;;;;;;2.85;0.30;;;;;;;;;;5037405;28;20563;-83
2022/06/07 09:22:55;;;;;;;0.55;0.30;;;;;;;;;;5035332;28;20045;-83
2022/06/07 09:25:34;;;;;;;1.98;0.30;;;;;;;;;;5035043;28;20143;-81
2022/06/07 09:28:03;;;;;;;0.82;0.20;;;;;;;;;;5034995;28;20092;-83
2022/06/07 09:30:30;;;;;;;0.88;0.35;;;;;;;;;;5035183;28;20063;-86
2022/06/07 09:33:03;;;;;;;5.70;0.50;;;;;;;;;;5053092;28;20521;-85
2022/06/07 09:35:38;;;;;;;5.75;0.40;;;;;;;;;;5052893;28;20382;-86
2022/06/07 09:38:07;;;;;;;1.55;0.45;;;;;;;;;;5052673;28;20045;-86
2022/06/07 09:40:35;;;;;;;0.82;0.50;;;;;;;;;;5035132;28;20063;-85
2022/06/07 09:43:06;;;;;;;0.75;0.47;;;;;;;;;;5052386;28;20491;-85
2022/06/07 09:45:38;;;;;;;2.40;0.30;;;;;;;;;;5034902;28;20127;-85
2022/06/07 09:48:20;;;;;;;3.08;0.35;;;;;;;;;;5034699;28;20044;-85
2022/06/07 09:50:55;;;;;;;9.38;0.85;;;;;;;;;;5034884;28;20052;-86
2022/06/07 09:53:23;;;;;;;12.70;0.60;;;;;;;;;;5051341;28;20091;-84
2022/06/07 09:55:58;;;;;;;1.50;0.50;;;;;;;;;;5052057;28;20445;-82
2022/06/07 09:58:48;;;;;;;3.92;0.60;;;;;;;;;;5034352;28;20144;-83
2022/06/07 10:01:18;;;;;;;5.18;1.00;;;;;;;;;;5034465;28;20053;-83
2022/06/07 10:03:53;;;;;;;7.85;0.93;;;;;;;;;;5034599;28;20084;-84
2022/06/07 10:06:29;;;;;;;1.60;0.45;;;;;;;;;;5034237;28;20049;-83
2022/06/07 10:09:08;;;;;;;0.95;0.50;;;;;;;;;;5052323;28;20068;-84
2022/06/07 10:11:40;;;;;;;0.80;0.40;;;;;;;;;;5034120;28;20052;-83
2022/06/07 10:14:23;;;;;;;6.15;0.80;;;;;;;;;;5051781;28;20080;-83
2022/06/07 10:16:50;;;;;;;6.18;0.65;;;;;;;;;;5051904;28;20412;-83
2022/06/07 10:19:26;;;;;;;1.88;0.20;;;;;;;;;;5051881;28;20150;-83
2022/06/07 10:21:58;;;;;;;0.55;0.30;;;;;;;;;;5034162;28;20144;-84
2022/06/07 10:24:29;;;;;;;3.05;0.40;;;;;;;;;;5051652;28;20092;-83
2022/06/07 10:27:15;;;;;;;0.65;0.25;;;;;;;;;;5034154;28;20099;-83
2022/06/07 10:30:04;;;;;;;1.75;0.30;;;;;;;;;;5034959;28;20053;-83
2022/06/07 10:33:06;;;;;;;0.30;0.20;;;;;;;;;;5036279;28;20045;-83
2022/06/07 10:35:48;;;;;;;0.32;0.20;;;;;;;;;;5037316;28;20049;-82
2022/06/07 10:38:18;;;;;;;1.25;0.22;;;;;;;;;;5055867;28;20055;-84
2022/06/07 10:40:57;;;;;;;1.92;0.40;;;;;;;;;;5033942;28;20140;-82
2022/06/07 10:43:45;;;;;;;0.47;0.20;;;;;;;;;;5033531;28;20132;-82
2022/06/07 10:46:14;;;;;;;0.70;0.20;;;;;;;;;;5051311;28;20053;-82
2022/06/07 10:48:47;;;;;;;1.65;0.38;;;;;;;;;;5034566;28;20059;-82
2022/06/07 10:54:26;;;;;;;0.98;0.20;;;;;;;;;;5051117;28;20045;-81
2022/06/07 10:57:02;;;;;;;2.63;0.60;;;;;;;;;;5051578;28;20171;-83
2022/06/07 10:59:30;;;;;;;1.17;0.20;;;;;;;;;;5033271;28;20559;-82
2022/06/07 11:02:02;;;;;;;1.08;0.50;;;;;;;;;;5033784;28;20513;-84
2022/06/07 11:10:17;;;;;;;3.15;0.22;;;;;;;;;;5055633;28;20075;-83
2022/06/07 11:12:51;;;;;;;0.68;0.20;;;;;;;;;;5055211;28;20057;-81
2022/06/07 11:15:19;;;;;;;1.52;0.30;;;;;;;;;;5037229;28;20136;-82
2022/06/07 11:17:49;;;;;;;1.40;0.32;;;;;;;;;;5037117;28;20584;-80
2022/06/07 11:20:23;;;;;;;1.75;0.30;;;;;;;;;;5036999;28;20083;-82
2022/06/07 11:23:09;;;;;;;2.17;0.40;;;;;;;;;;5054300;28;20080;-81
2022/06/07 11:26:02;;;;;;;0.40;0.15;;;;;;;;;;5036925;28;20569;-82
2022/06/07 11:28:49;;;;;;;0.20;0.10;;;;;;;;;;5032858;28;20096;-81
2022/06/07 11:31:29;;;;;;;0.85;0.28;;;;;;;;;;5036782;28;20095;-82
2022/06/07 11:34:22;;;;;;;1.08;0.30;;;;;;;;;;5054717;28;20508;-82
2022/06/07 11:37:10;;;;;;;0.40;0.15;;;;;;;;;;5033424;28;20049;-81
2022/06/07 11:39:40;;;;;;;0.43;0.30;;;;;;;;;;5020674;28;20080;-81
2022/06/07 11:42:07;;;;;;;8.23;0.60;;;;;;;;;;5054479;28;20089;-82
2022/06/07 11:44:58;;;;;;;2.83;0.47;;;;;;;;;;5036654;28;20096;-82
2022/06/07 11:47:27;;;;;;;0.20;0.20;;;;;;;;;;5024603;28;20470;-82
2022/06/07 11:49:57;;;;;;;0.35;0.30;;;;;;;;;;5036551;28;20056;-81
2022/06/07 11:52:26;;;;;;;2.60;0.32;;;;;;;;;;5036560;28;20103;-82
2022/06/07 11:55:13;;;;;;;1.02;0.20;;;;;;;;;;5040188;28;20079;-82
2022/06/07 11:58:00;;;;;;;2.35;0.40;;;;;;;;;;5037757;28;20048;-85
2022/06/07 12:00:30;;;;;;;1.15;0.20;;;;;;;;;;5053860;28;20052;-81
2022/06/07 12:02:57;;;;;;;0.57;0.32;;;;;;;;;;5053669;28;20049;-81
2022/06/07 12:05:43;;;;;;;1.05;0.25;;;;;;;;;;5053782;28;20132;-81
2022/06/07 12:08:30;;;;;;;0.60;0.35;;;;;;;;;;5053384;28;20080;-81
2022/06/07 12:11:00;;;;;;;0.28;0.28;;;;;;;;;;5036083;28;20060;-81
2022/06/07 12:16:35;;;;;;;1.63;0.45;;;;;;;;;;4990829;28;20050;-83
2022/06/07 12:19:04;;;;;;;1.30;0.40;;;;;;;;;;5028407;28;20486;-81
2022/06/07 12:21:40;;;;;;;5.35;0.38;;;;;;;;;;5053395;28;20172;-81
2022/06/07 12:24:14;;;;;;;2.75;0.80;;;;;;;;;;5035721;28;20080;-80
2022/06/07 12:26:41;;;;;;;0.10;0.10;;;;;;;;;;5053731;28;20135;-81
2022/06/07 12:29:23;;;;;;;3.78;0.50;;;;;;;;;;5035473;28;20057;-81
2022/06/07 12:31:55;;;;;;;1.33;0.40;;;;;;;;;;5036032;28;20497;-81
2022/06/07 12:34:30;;;;;;;1.17;0.30;;;;;;;;;;5035357;28;20484;-81
2022/06/07 12:37:18;;;;;;;0.20;0.20;;;;;;;;;;5035838;28;20091;-81
2022/06/07 12:39:47;;;;;;;1.20;0.30;;;;;;;;;;5036695;28;20076;-80
2022/06/07 12:42:15;;;;;;;1.23;0.30;;;;;;;;;;5035439;28;20511;-82
2022/06/07 12:44:49;;;;;;;1.40;0.30;;;;;;;;;;5035536;28;20128;-81
2022/06/07 12:47:22;;;;;;;0.22;0.22;;;;;;;;;;5035611;28;20136;-81
2022/06/07 12:49:49;;;;;;;0.32;0.20;;;;;;;;;;5053032;28;20568;-81
2022/06/07 12:52:22;;;;;;;12.25;0.80;;;;;;;;;;5035424;28;20477;-81
2022/06/07 12:54:50;;;;;;;1.83;0.30;;;;;;;;;;5035427;28;20088;-82
2022/06/07 12:57:22;;;;;;;2.50;0.30;;;;;;;;;;5035481;28;20053;-84
2022/06/07 12:59:52;;;;;;;1.08;0.30;;;;;;;;;;5052845;28;20052;-80
2022/06/07 13:02:40;;;;;;;34.53;1.70;;;;;;;;;;5052725;28;20497;-83
2022/06/07 13:05:10;;;;;;;2.70;0.52;;;;;;;;;;5052545;28;20087;-82
2022/06/07 13:07:47;;;;;;;0.63;0.30;;;;;;;;;;5053035;28;20481;-81
2022/06/07 13:10:15;;;;;;;1.52;0.20;;;;;;;;;;5052780;28;20048;-81
2022/06/07 13:12:44;;;;;;;1.00;0.20;;;;;;;;;;5053115;28;20052;-82
2022/06/07 13:15:14;;;;;;;2.33;0.20;;;;;;;;;;5037684;28;20091;-82
2022/06/07 13:17:51;;;;;;;1.30;0.20;;;;;;;;;;5034943;28;20053;-81
2022/06/07 13:20:28;;;;;;;0.95;0.20;;;;;;;;;;5034876;28;20131;-81
2022/06/07 13:22:55;;;;;;;7.78;0.38;;;;;;;;;;5034653;28;20048;-81
2022/06/07 13:25:28;;;;;;;3.95;0.30;;;;;;;;;;5052093;28;20462;-82
2022/06/07 13:28:06;;;;;;;1.40;0.40;;;;;;;;;;5034523;28;20049;-83
2022/06/07 13:30:33;;;;;;;2.80;0.45;;;;;;;;;;5052730;28;20076;-82
2022/06/07 13:33:02;;;;;;;13.45;1.40;;;;;;;;;;5052258;28;20610;-84
2022/06/07 13:35:30;;;;;;;6.97;0.60;;;;;;;;;;5034765;28;20127;-82
2022/06/07 13:38:02;;;;;;;5.80;0.43;;;;;;;;;;5034497;28;20076;-82
2022/06/07 13:40:31;;;;;;;1.60;0.30;;;;;;;;;;5052029;28;20531;-81
2022/06/07 13:43:13;;;;;;;1.00;0.35;;;;;;;;;;5034509;28;20045;-82
2022/06/07 13:45:49;;;;;;;0.57;0.30;;;;;;;;;;5034675;28;20477;-81
2022/06/07 13:48:17;;;;;;;4.88;0.40;;;;;;;;;;5034393;28;20081;-83
2022/06/07 13:53:47;;;;;;;1.17;0.40;;;;;;;;;;5051877;28;20123;-82
2022/06/07 13:56:17;;;;;;;0.77;0.40;;;;;;;;;;5034071;28;20052;-81
2022/06/07 13:58:48;;;;;;;3.30;0.30;;;;;;;;;;5051764;28;20052;-82
2022/06/07 14:01:17;;;;;;;0.57;0.40;;;;;;;;;;5052228;28;20048;-82
2022/06/07 14:03:47;;;;;;;0.60;0.40;;;;;;;;;;5034401;28;20524;-88
2022/06/07 14:06:32;;;;;;;3.47;0.40;;;;;;;;;;5051801;28;20053;-83
2022/06/07 14:09:00;;;;;;;1.60;0.45;;;;;;;;;;5033976;28;20494;-81
2022/06/07 14:11:28;;;;;;;1.75;0.30;;;;;;;;;;5051853;28;20049;-81
2022/06/07 14:13:55;;;;;;;0.95;0.22;;;;;;;;;;5034266;28;20164;-82
2022/06/07 14:16:27;;;;;;;0.88;0.22;;;;;;;;;;5051423;28;20672;-81
2022/06/07 14:18:55;;;;;;;0.45;0.30;;;;;;;;;;5034200;28;20045;-81
2022/06/07 14:21:23;;;;;;;1.27;0.30;;;;;;;;;;5034002;28;20060;-82
2022/06/07 14:23:51;;;;;;;1.20;0.40;;;;;;;;;;5033615;28;20063;-83
2022/06/07 14:26:18;;;;;;;2.35;0.40;;;;;;;;;;5034156;28;20131;-82
2022/06/07 14:28:46;;;;;;;0.93;0.38;;;;;;;;;;5034294;28;20136;-83
2022/06/07 14:31:15;;;;;;;6.07;0.43;;;;;;;;;;5037850;28;20045;-84
2022/06/07 14:33:43;;;;;;;5.57;0.60;;;;;;;;;;5036832;28;20140;-81
2022/06/07 14:36:12;;;;;;;1.30;0.30;;;;;;;;;;5051509;28;20065;-82
2022/06/07 14:38:39;;;;;;;1.35;0.32;;;;;;;;;;5034014;28;20140;-80
2022/06/07 14:41:06;;;;;;;0.77;0.25;;;;;;;;;;5037564;28;20060;-84
2022/06/07 14:43:34;;;;;;;1.95;0.40;;;;;;;;;;5038196;28;20137;-83
2022/06/07 14:46:18;;;;;;;2.40;0.30;;;;;;;;;;5038057;28;20045;-83
2022/06/07 14:48:48;;;;;;;3.65;0.40;;;;;;;;;;5055692;28;20057;-85
2022/06/07 14:51:23;;;;;;;1.70;0.30;;;;;;;;;;5055395;28;20144;-86
2022/06/07 14:53:51;;;;;;;5.55;0.50;;;;;;;;;;5055646;28;20394;-82
2022/06/07 14:56:19;;;;;;;2.55;0.40;;;;;;;;;;5037985;28;20053;-86
2022/06/07 14:58:47;;;;;;;2.60;0.30;;;;;;;;;;5037942;28;20160;-83
2022/06/07 15:01:16;;;;;;;4.88;0.68;;;;;;;;;;5037558;28;20079;-83
2022/06/07 15:03:44;;;;;;;1.70;0.32;;;;;;;;;;5037034;28;20487;-83
2022/06/07 15:06:31;;;;;;;2.85;0.30;;;;;;;;;;5055567;28;20041;-84
2022/06/07 15:08:58;;;;;;;3.30;0.50;;;;;;;;;;5039245;28;20143;-82
2022/06/07 15:11:27;;;;;;;2.67;0.40;;;;;;;;;;5037519;28;20588;-82
2022/06/07 15:13:55;;;;;;;2.63;0.40;;;;;;;;;;5054675;28;20098;-81
2022/06/07 15:16:22;;;;;;;3.47;0.30;;;;;;;;;;5036816;28;20131;-82
2022/06/07 15:18:50;;;;;;;0.93;0.17;;;;;;;;;;5037205;28;20045;-83
2022/06/07 15:21:19;;;;;;;0.20;0.20;;;;;;;;;;5054577;28;20515;-81
2022/06/07 15:23:47;;;;;;;1.92;0.32;;;;;;;;;;5036752;28;20475;-82
2022/06/07 15:26:17;;;;;;;0.73;0.30;;;;;;;;;;5054440;28;20049;-83
2022/06/07 15:28:44;;;;;;;0.57;0.20;;;;;;;;;;5036948;28;20053;-82
2022/06/07 15:31:19;;;;;;;2.10;0.30;;;;;;;;;;5036863;28;20132;-82
2022/06/07 15:33:47;;;;;;;4.95;0.50;;;;;;;;;;5037300;28;20103;-83